sensor_id;sensor_type;location;lat;lon;timestamp;P1;durP1;ratioP1;P2;durP2;ratioP2
48034;SDS011;33812;46.480;6.834;2022-12-11T00:01:56;1.40;;;1.30;;
48034;SDS011;33812;46.480;6.834;2022-12-11T00:05:57;2.05;;;1.17;;
48034;SDS011;33812;46.480;6.834;2022-12-11T00:09:59;1.70;;;1.20;;
48034;SDS011;33812;46.480;6.834;2022-12-11T00:14:01;1.33;;;1.23;;
48034;SDS011;33812;46.480;6.834;2022-12-11T00:18:04;1.63;;;1.10;;
48034;SDS011;33812;46.480;6.834;2022-12-11T00:22:06;1.63;;;1.35;;
48034;SDS011;33812;46.480;6.834;2022-12-11T00:26:09;3.35;;;1.38;;
48034;SDS011;33812;46.480;6.834;2022-12-11T00:34:16;1.63;;;1.30;;
48034;SDS011;33812;46.480;6.834;2022-12-11T00:38:19;1.58;;;0.93;;
48034;SDS011;33812;46.480;6.834;2022-12-11T00:42:21;1.87;;;1.10;;
48034;SDS011;33812;46.480;6.834;2022-12-11T00:46:23;1.33;;;1.23;;
48034;SDS011;33812;46.480;6.834;2022-12-11T00:50:26;1.20;;;1.10;;
48034;SDS011;33812;46.480;6.834;2022-12-11T00:54:28;1.10;;;1.00;;
48034;SDS011;33812;46.480;6.834;2022-12-11T00:58:30;1.30;;;1.10;;
48034;SDS011;33812;46.480;6.834;2022-12-11T01:02:32;2.95;;;1.45;;
48034;SDS011;33812;46.480;6.834;2022-12-11T01:06:35;1.20;;;1.05;;
48034;SDS011;33812;46.480;6.834;2022-12-11T01:10:37;1.88;;;1.13;;
48034;SDS011;33812;46.480;6.834;2022-12-11T01:14:39;1.80;;;1.25;;
48034;SDS011;33812;46.480;6.834;2022-12-11T01:18:41;1.90;;;1.10;;
48034;SDS011;33812;46.480;6.834;2022-12-11T01:22:44;1.15;;;1.05;;
48034;SDS011;33812;46.480;6.834;2022-12-11T01:26:46;1.42;;;1.33;;
48034;SDS011;33812;46.480;6.834;2022-12-11T01:30:48;1.55;;;1.27;;
48034;SDS011;33812;46.480;6.834;2022-12-11T01:34:50;1.42;;;1.27;;
48034;SDS011;33812;46.480;6.834;2022-12-11T01:38:53;1.42;;;1.25;;
48034;SDS011;33812;46.480;6.834;2022-12-11T01:42:55;2.20;;;1.30;;
48034;SDS011;33812;46.480;6.834;2022-12-11T01:46:56;1.40;;;1.20;;
48034;SDS011;33812;46.480;6.834;2022-12-11T01:51:00;1.10;;;1.00;;
48034;SDS011;33812;46.480;6.834;2022-12-11T01:55:07;1.70;;;1.17;;
48034;SDS011;33812;46.480;6.834;2022-12-11T01:59:09;1.23;;;0.93;;
48034;SDS011;33812;46.480;6.834;2022-12-11T02:03:15;1.35;;;1.25;;
48034;SDS011;33812;46.480;6.834;2022-12-11T02:07:16;1.30;;;1.20;;
48034;SDS011;33812;46.480;6.834;2022-12-11T02:11:20;1.58;;;1.45;;
48034;SDS011;33812;46.480;6.834;2022-12-11T02:15:32;1.70;;;1.13;;
48034;SDS011;33812;46.480;6.834;2022-12-11T02:19:43;1.55;;;1.38;;
48034;SDS011;33812;46.480;6.834;2022-12-11T02:28:29;1.58;;;1.33;;
48034;SDS011;33812;46.480;6.834;2022-12-11T02:32:35;1.10;;;1.00;;
48034;SDS011;33812;46.480;6.834;2022-12-11T02:36:41;1.50;;;1.40;;
48034;SDS011;33812;46.480;6.834;2022-12-11T02:40:45;1.63;;;1.33;;
48034;SDS011;33812;46.480;6.834;2022-12-11T02:44:53;1.33;;;1.23;;
48034;SDS011;33812;46.480;6.834;2022-12-11T02:48:57;1.77;;;1.40;;
48034;SDS011;33812;46.480;6.834;2022-12-11T02:52:59;1.55;;;1.40;;
48034;SDS011;33812;46.480;6.834;2022-12-11T02:57:04;1.38;;;1.25;;
48034;SDS011;33812;46.480;6.834;2022-12-11T03:01:11;2.00;;;1.23;;
48034;SDS011;33812;46.480;6.834;2022-12-11T03:05:13;1.60;;;1.23;;
48034;SDS011;33812;46.480;6.834;2022-12-11T03:09:15;1.55;;;1.20;;
48034;SDS011;33812;46.480;6.834;2022-12-11T03:13:18;2.17;;;1.38;;
48034;SDS011;33812;46.480;6.834;2022-12-11T03:17:24;1.58;;;1.48;;
48034;SDS011;33812;46.480;6.834;2022-12-11T03:21:32;1.50;;;1.40;;
48034;SDS011;33812;46.480;6.834;2022-12-11T03:25:39;1.40;;;1.30;;
48034;SDS011;33812;46.480;6.834;2022-12-11T03:29:48;1.42;;;1.33;;
48034;SDS011;33812;46.480;6.834;2022-12-11T03:33:58;1.42;;;1.10;;
48034;SDS011;33812;46.480;6.834;2022-12-11T03:38:05;1.30;;;1.20;;
48034;SDS011;33812;46.480;6.834;2022-12-11T03:42:11;1.42;;;1.30;;
48034;SDS011;33812;46.480;6.834;2022-12-11T03:46:14;1.30;;;1.20;;
48034;SDS011;33812;46.480;6.834;2022-12-11T03:50:19;1.40;;;1.30;;
48034;SDS011;33812;46.480;6.834;2022-12-11T03:54:23;1.42;;;1.27;;
48034;SDS011;33812;46.480;6.834;2022-12-11T03:58:26;1.45;;;1.30;;
48034;SDS011;33812;46.480;6.834;2022-12-11T04:02:28;1.90;;;1.30;;
48034;SDS011;33812;46.480;6.834;2022-12-11T04:06:31;2.30;;;1.70;;
48034;SDS011;33812;46.480;6.834;2022-12-11T04:10:33;1.60;;;1.40;;
48034;SDS011;33812;46.480;6.834;2022-12-11T04:14:34;1.95;;;1.58;;
48034;SDS011;33812;46.480;6.834;2022-12-11T04:18:53;2.08;;;1.48;;
48034;SDS011;33812;46.480;6.834;2022-12-11T04:23:15;1.85;;;1.40;;
48034;SDS011;33812;46.480;6.834;2022-12-11T04:27:35;1.75;;;1.42;;
48034;SDS011;33812;46.480;6.834;2022-12-11T04:31:49;1.65;;;1.50;;
48034;SDS011;33812;46.480;6.834;2022-12-11T04:35:50;1.35;;;1.00;;
48034;SDS011;33812;46.480;6.834;2022-12-11T04:39:54;2.70;;;1.20;;
48034;SDS011;33812;46.480;6.834;2022-12-11T04:43:55;1.35;;;1.25;;
48034;SDS011;33812;46.480;6.834;2022-12-11T04:47:57;1.65;;;1.50;;
48034;SDS011;33812;46.480;6.834;2022-12-11T04:52:00;1.15;;;1.05;;
48034;SDS011;33812;46.480;6.834;2022-12-11T04:56:05;1.40;;;1.30;;
48034;SDS011;33812;46.480;6.834;2022-12-11T05:04:11;1.00;;;1.00;;
48034;SDS011;33812;46.480;6.834;2022-12-11T05:08:13;1.42;;;1.30;;
48034;SDS011;33812;46.480;6.834;2022-12-11T05:12:16;3.00;;;1.10;;
48034;SDS011;33812;46.480;6.834;2022-12-11T05:16:18;1.25;;;1.15;;
48034;SDS011;33812;46.480;6.834;2022-12-11T05:20:20;1.88;;;1.20;;
48034;SDS011;33812;46.480;6.834;2022-12-11T05:24:21;1.30;;;1.10;;
48034;SDS011;33812;46.480;6.834;2022-12-11T05:28:25;1.52;;;1.08;;
48034;SDS011;33812;46.480;6.834;2022-12-11T05:32:29;1.35;;;1.10;;
48034;SDS011;33812;46.480;6.834;2022-12-11T05:36:31;1.63;;;1.27;;
48034;SDS011;33812;46.480;6.834;2022-12-11T05:40:34;1.48;;;1.15;;
48034;SDS011;33812;46.480;6.834;2022-12-11T05:44:37;1.23;;;1.00;;
48034;SDS011;33812;46.480;6.834;2022-12-11T05:48:39;1.60;;;1.00;;
48034;SDS011;33812;46.480;6.834;2022-12-11T05:52:41;1.23;;;1.10;;
48034;SDS011;33812;46.480;6.834;2022-12-11T05:56:43;1.30;;;1.20;;
48034;SDS011;33812;46.480;6.834;2022-12-11T06:00:46;1.10;;;1.00;;
48034;SDS011;33812;46.480;6.834;2022-12-11T06:04:48;2.53;;;1.40;;
48034;SDS011;33812;46.480;6.834;2022-12-11T06:08:50;1.65;;;1.25;;
48034;SDS011;33812;46.480;6.834;2022-12-11T06:12:53;1.55;;;1.10;;
48034;SDS011;33812;46.480;6.834;2022-12-11T06:16:56;1.10;;;1.00;;
48034;SDS011;33812;46.480;6.834;2022-12-11T06:20:57;1.10;;;1.00;;
48034;SDS011;33812;46.480;6.834;2022-12-11T06:24:59;3.92;;;1.30;;
48034;SDS011;33812;46.480;6.834;2022-12-11T06:29:01;2.15;;;1.27;;
48034;SDS011;33812;46.480;6.834;2022-12-11T06:33:04;1.50;;;1.38;;
48034;SDS011;33812;46.480;6.834;2022-12-11T06:37:06;2.63;;;1.40;;
48034;SDS011;33812;46.480;6.834;2022-12-11T06:41:08;7.18;;;1.90;;
48034;SDS011;33812;46.480;6.834;2022-12-11T06:45:10;7.30;;;1.75;;
48034;SDS011;33812;46.480;6.834;2022-12-11T06:49:13;17.63;;;1.70;;
48034;SDS011;33812;46.480;6.834;2022-12-11T06:53:15;6.60;;;1.80;;
48034;SDS011;33812;46.480;6.834;2022-12-11T06:57:17;5.10;;;2.42;;
48034;SDS011;33812;46.480;6.834;2022-12-11T07:01:20;191.80;;;52.35;;
48034;SDS011;33812;46.480;6.834;2022-12-11T07:05:24;275.83;;;66.90;;
48034;SDS011;33812;46.480;6.834;2022-12-11T07:09:26;327.50;;;89.05;;
48034;SDS011;33812;46.480;6.834;2022-12-11T07:13:28;351.35;;;90.55;;
48034;SDS011;33812;46.480;6.834;2022-12-11T07:17:30;324.98;;;86.18;;
48034;SDS011;33812;46.480;6.834;2022-12-11T07:21:33;282.90;;;78.00;;
48034;SDS011;33812;46.480;6.834;2022-12-11T07:25:35;308.83;;;79.30;;
48034;SDS011;33812;46.480;6.834;2022-12-11T07:29:37;253.23;;;69.43;;
48034;SDS011;33812;46.480;6.834;2022-12-11T07:33:39;249.02;;;72.80;;
48034;SDS011;33812;46.480;6.834;2022-12-11T07:37:44;225.95;;;60.42;;
48034;SDS011;33812;46.480;6.834;2022-12-11T07:41:46;74.13;;;24.85;;
48034;SDS011;33812;46.480;6.834;2022-12-11T07:45:47;10.65;;;8.32;;
48034;SDS011;33812;46.480;6.834;2022-12-11T07:49:50;34.40;;;6.72;;
48034;SDS011;33812;46.480;6.834;2022-12-11T07:53:56;13.20;;;6.07;;
48034;SDS011;33812;46.480;6.834;2022-12-11T07:57:58;25.08;;;5.47;;
48034;SDS011;33812;46.480;6.834;2022-12-11T08:02:00;17.48;;;5.00;;
48034;SDS011;33812;46.480;6.834;2022-12-11T08:06:02;9.23;;;4.07;;
48034;SDS011;33812;46.480;6.834;2022-12-11T08:10:07;33.50;;;4.70;;
48034;SDS011;33812;46.480;6.834;2022-12-11T08:18:10;16.23;;;3.50;;
48034;SDS011;33812;46.480;6.834;2022-12-11T08:22:12;11.15;;;3.35;;
48034;SDS011;33812;46.480;6.834;2022-12-11T08:26:16;13.75;;;3.70;;
48034;SDS011;33812;46.480;6.834;2022-12-11T08:30:19;8.57;;;3.35;;
48034;SDS011;33812;46.480;6.834;2022-12-11T08:34:21;19.70;;;3.40;;
48034;SDS011;33812;46.480;6.834;2022-12-11T08:38:23;6.68;;;2.80;;
48034;SDS011;33812;46.480;6.834;2022-12-11T08:42:27;6.00;;;2.88;;
48034;SDS011;33812;46.480;6.834;2022-12-11T08:46:29;9.50;;;3.30;;
48034;SDS011;33812;46.480;6.834;2022-12-11T08:50:32;12.68;;;3.15;;
48034;SDS011;33812;46.480;6.834;2022-12-11T08:54:35;9.68;;;3.08;;
48034;SDS011;33812;46.480;6.834;2022-12-11T08:58:38;12.63;;;3.13;;
48034;SDS011;33812;46.480;6.834;2022-12-11T09:02:40;11.20;;;4.10;;
48034;SDS011;33812;46.480;6.834;2022-12-11T09:06:43;12.60;;;3.35;;
48034;SDS011;33812;46.480;6.834;2022-12-11T09:10:45;6.57;;;3.13;;
48034;SDS011;33812;46.480;6.834;2022-12-11T09:14:48;13.20;;;2.95;;
48034;SDS011;33812;46.480;6.834;2022-12-11T09:18:50;12.68;;;3.10;;
48034;SDS011;33812;46.480;6.834;2022-12-11T09:22:53;6.55;;;2.08;;
48034;SDS011;33812;46.480;6.834;2022-12-11T09:26:55;17.30;;;2.50;;
48034;SDS011;33812;46.480;6.834;2022-12-11T09:30:59;5.97;;;2.45;;
48034;SDS011;33812;46.480;6.834;2022-12-11T09:35:00;11.52;;;2.17;;
48034;SDS011;33812;46.480;6.834;2022-12-11T09:39:03;8.90;;;2.45;;
48034;SDS011;33812;46.480;6.834;2022-12-11T09:43:08;4.60;;;1.90;;
48034;SDS011;33812;46.480;6.834;2022-12-11T09:47:22;5.53;;;2.05;;
48034;SDS011;33812;46.480;6.834;2022-12-11T09:51:27;2.58;;;1.67;;
48034;SDS011;33812;46.480;6.834;2022-12-11T09:55:38;7.13;;;1.60;;
48034;SDS011;33812;46.480;6.834;2022-12-11T09:59:52;4.68;;;1.70;;
48034;SDS011;33812;46.480;6.834;2022-12-11T10:04:09;5.80;;;1.80;;
48034;SDS011;33812;46.480;6.834;2022-12-11T10:08:22;5.70;;;1.80;;
48034;SDS011;33812;46.480;6.834;2022-12-11T10:12:33;20.30;;;9.55;;
48034;SDS011;33812;46.480;6.834;2022-12-11T10:16:46;20.97;;;5.33;;
48034;SDS011;33812;46.480;6.834;2022-12-11T10:20:53;10.98;;;4.40;;
48034;SDS011;33812;46.480;6.834;2022-12-11T10:24:56;8.95;;;3.75;;
48034;SDS011;33812;46.480;6.834;2022-12-11T10:29:00;6.47;;;3.70;;
48034;SDS011;33812;46.480;6.834;2022-12-11T10:33:04;10.75;;;3.28;;
48034;SDS011;33812;46.480;6.834;2022-12-11T10:37:16;15.23;;;3.35;;
48034;SDS011;33812;46.480;6.834;2022-12-11T10:41:19;6.45;;;3.25;;
48034;SDS011;33812;46.480;6.834;2022-12-11T10:45:24;11.25;;;3.25;;
48034;SDS011;33812;46.480;6.834;2022-12-11T10:49:27;19.13;;;3.05;;
48034;SDS011;33812;46.480;6.834;2022-12-11T10:53:33;8.98;;;3.42;;
48034;SDS011;33812;46.480;6.834;2022-12-11T10:57:36;5.28;;;2.97;;
48034;SDS011;33812;46.480;6.834;2022-12-11T11:01:39;14.32;;;3.10;;
48034;SDS011;33812;46.480;6.834;2022-12-11T11:05:47;8.70;;;2.75;;
48034;SDS011;33812;46.480;6.834;2022-12-11T11:09:59;3.47;;;2.20;;
48034;SDS011;33812;46.480;6.834;2022-12-11T11:14:12;7.25;;;3.42;;
48034;SDS011;33812;46.480;6.834;2022-12-11T11:18:16;10.95;;;3.20;;
48034;SDS011;33812;46.480;6.834;2022-12-11T11:22:25;13.02;;;2.55;;
48034;SDS011;33812;46.480;6.834;2022-12-11T11:26:28;5.20;;;2.70;;
48034;SDS011;33812;46.480;6.834;2022-12-11T11:30:34;13.15;;;2.97;;
48034;SDS011;33812;46.480;6.834;2022-12-11T11:34:37;16.15;;;2.72;;
48034;SDS011;33812;46.480;6.834;2022-12-11T11:38:40;5.53;;;2.45;;
48034;SDS011;33812;46.480;6.834;2022-12-11T11:42:48;20.58;;;2.80;;
48034;SDS011;33812;46.480;6.834;2022-12-11T11:46:58;12.35;;;2.90;;
48034;SDS011;33812;46.480;6.834;2022-12-11T11:51:07;14.80;;;3.55;;
48034;SDS011;33812;46.480;6.834;2022-12-11T11:55:16;11.48;;;3.10;;
48034;SDS011;33812;46.480;6.834;2022-12-11T11:59:22;14.55;;;2.38;;
48034;SDS011;33812;46.480;6.834;2022-12-11T12:03:31;18.98;;;5.47;;
48034;SDS011;33812;46.480;6.834;2022-12-11T12:07:34;7.55;;;6.85;;
48034;SDS011;33812;46.480;6.834;2022-12-11T12:11:42;6.57;;;5.90;;
48034;SDS011;33812;46.480;6.834;2022-12-11T12:15:53;7.13;;;3.20;;
48034;SDS011;33812;46.480;6.834;2022-12-11T12:19:59;4.18;;;2.97;;
48034;SDS011;33812;46.480;6.834;2022-12-11T12:24:13;5.13;;;2.10;;
48034;SDS011;33812;46.480;6.834;2022-12-11T12:28:25;7.93;;;2.28;;
48034;SDS011;33812;46.480;6.834;2022-12-11T12:32:42;5.57;;;1.98;;
48034;SDS011;33812;46.480;6.834;2022-12-11T12:36:53;2.97;;;2.13;;
48034;SDS011;33812;46.480;6.834;2022-12-11T12:41:04;15.38;;;2.20;;
48034;SDS011;33812;46.480;6.834;2022-12-11T12:45:15;10.35;;;2.13;;
48034;SDS011;33812;46.480;6.834;2022-12-11T12:53:42;4.30;;;1.70;;
48034;SDS011;33812;46.480;6.834;2022-12-11T12:58:02;14.82;;;2.95;;
48034;SDS011;33812;46.480;6.834;2022-12-11T13:02:05;8.68;;;2.33;;
48034;SDS011;33812;46.480;6.834;2022-12-11T13:06:28;15.60;;;2.63;;
48034;SDS011;33812;46.480;6.834;2022-12-11T13:14:37;10.68;;;2.00;;
48034;SDS011;33812;46.480;6.834;2022-12-11T13:18:39;13.98;;;1.67;;
48034;SDS011;33812;46.480;6.834;2022-12-11T13:22:52;7.65;;;1.67;;
48034;SDS011;33812;46.480;6.834;2022-12-11T13:26:56;6.50;;;2.22;;
48034;SDS011;33812;46.480;6.834;2022-12-11T13:35:38;3.50;;;1.58;;
48034;SDS011;33812;46.480;6.834;2022-12-11T13:39:44;4.18;;;1.42;;
48034;SDS011;33812;46.480;6.834;2022-12-11T13:43:48;6.45;;;1.73;;
48034;SDS011;33812;46.480;6.834;2022-12-11T13:47:50;5.03;;;2.00;;
48034;SDS011;33812;46.480;6.834;2022-12-11T13:51:53;5.93;;;1.20;;
48034;SDS011;33812;46.480;6.834;2022-12-11T13:55:59;5.05;;;1.45;;
48034;SDS011;33812;46.480;6.834;2022-12-11T14:00:02;3.15;;;1.45;;
48034;SDS011;33812;46.480;6.834;2022-12-11T14:04:06;3.72;;;1.67;;
48034;SDS011;33812;46.480;6.834;2022-12-11T14:08:15;4.10;;;1.40;;
48034;SDS011;33812;46.480;6.834;2022-12-11T14:12:23;6.07;;;1.38;;
48034;SDS011;33812;46.480;6.834;2022-12-11T14:16:25;2.35;;;1.23;;
48034;SDS011;33812;46.480;6.834;2022-12-11T14:20:28;1.95;;;1.38;;
48034;SDS011;33812;46.480;6.834;2022-12-11T14:24:31;2.63;;;1.30;;
48034;SDS011;33812;46.480;6.834;2022-12-11T14:28:36;3.20;;;1.40;;
48034;SDS011;33812;46.480;6.834;2022-12-11T14:32:40;3.45;;;1.42;;
48034;SDS011;33812;46.480;6.834;2022-12-11T14:36:45;3.15;;;1.60;;
48034;SDS011;33812;46.480;6.834;2022-12-11T14:40:49;4.55;;;1.60;;
48034;SDS011;33812;46.480;6.834;2022-12-11T14:44:55;2.33;;;1.45;;
48034;SDS011;33812;46.480;6.834;2022-12-11T14:49:01;4.05;;;1.40;;
48034;SDS011;33812;46.480;6.834;2022-12-11T14:53:09;4.05;;;1.58;;
48034;SDS011;33812;46.480;6.834;2022-12-11T14:57:17;2.75;;;1.35;;
48034;SDS011;33812;46.480;6.834;2022-12-11T15:01:23;4.05;;;1.60;;
48034;SDS011;33812;46.480;6.834;2022-12-11T15:05:26;3.53;;;1.45;;
48034;SDS011;33812;46.480;6.834;2022-12-11T15:09:35;4.82;;;2.00;;
48034;SDS011;33812;46.480;6.834;2022-12-11T15:13:45;3.13;;;1.60;;
48034;SDS011;33812;46.480;6.834;2022-12-11T15:17:53;5.60;;;1.88;;
48034;SDS011;33812;46.480;6.834;2022-12-11T15:21:59;2.92;;;1.60;;
48034;SDS011;33812;46.480;6.834;2022-12-11T15:26:02;4.10;;;1.60;;
48034;SDS011;33812;46.480;6.834;2022-12-11T15:30:14;2.97;;;1.80;;
48034;SDS011;33812;46.480;6.834;2022-12-11T15:34:31;4.18;;;2.00;;
48034;SDS011;33812;46.480;6.834;2022-12-11T15:38:35;5.18;;;2.10;;
48034;SDS011;33812;46.480;6.834;2022-12-11T15:46:42;3.75;;;1.73;;
48034;SDS011;33812;46.480;6.834;2022-12-11T15:50:45;5.78;;;1.92;;
48034;SDS011;33812;46.480;6.834;2022-12-11T15:54:47;2.33;;;1.55;;
48034;SDS011;33812;46.480;6.834;2022-12-11T15:58:49;3.08;;;1.65;;
48034;SDS011;33812;46.480;6.834;2022-12-11T16:02:50;7.30;;;1.88;;
48034;SDS011;33812;46.480;6.834;2022-12-11T16:06:54;6.30;;;1.95;;
48034;SDS011;33812;46.480;6.834;2022-12-11T16:10:56;12.38;;;1.90;;
48034;SDS011;33812;46.480;6.834;2022-12-11T16:14:58;5.60;;;1.80;;
48034;SDS011;33812;46.480;6.834;2022-12-11T16:18:59;5.35;;;1.95;;
48034;SDS011;33812;46.480;6.834;2022-12-11T16:23:03;7.70;;;2.30;;
48034;SDS011;33812;46.480;6.834;2022-12-11T16:27:05;6.03;;;1.80;;
48034;SDS011;33812;46.480;6.834;2022-12-11T16:31:09;5.00;;;1.85;;
48034;SDS011;33812;46.480;6.834;2022-12-11T16:35:11;7.15;;;1.70;;
48034;SDS011;33812;46.480;6.834;2022-12-11T16:39:14;4.22;;;2.10;;
48034;SDS011;33812;46.480;6.834;2022-12-11T16:43:16;6.32;;;2.00;;
48034;SDS011;33812;46.480;6.834;2022-12-11T16:47:17;5.15;;;1.83;;
48034;SDS011;33812;46.480;6.834;2022-12-11T16:51:19;7.47;;;1.60;;
48034;SDS011;33812;46.480;6.834;2022-12-11T16:55:22;9.15;;;3.78;;
48034;SDS011;33812;46.480;6.834;2022-12-11T16:59:24;5.63;;;2.58;;
48034;SDS011;33812;46.480;6.834;2022-12-11T17:03:25;3.78;;;2.20;;
48034;SDS011;33812;46.480;6.834;2022-12-11T17:07:28;9.43;;;2.20;;
48034;SDS011;33812;46.480;6.834;2022-12-11T17:11:32;6.95;;;2.05;;
48034;SDS011;33812;46.480;6.834;2022-12-11T17:15:37;11.18;;;2.17;;
48034;SDS011;33812;46.480;6.834;2022-12-11T17:19:40;8.05;;;2.20;;
48034;SDS011;33812;46.480;6.834;2022-12-11T17:23:41;8.77;;;2.15;;
48034;SDS011;33812;46.480;6.834;2022-12-11T17:27:44;4.63;;;2.05;;
48034;SDS011;33812;46.480;6.834;2022-12-11T17:31:47;14.90;;;2.47;;
48034;SDS011;33812;46.480;6.834;2022-12-11T17:35:49;4.22;;;1.90;;
48034;SDS011;33812;46.480;6.834;2022-12-11T17:39:51;4.55;;;1.70;;
48034;SDS011;33812;46.480;6.834;2022-12-11T17:43:54;4.32;;;1.90;;
48034;SDS011;33812;46.480;6.834;2022-12-11T17:47:56;5.40;;;2.25;;
48034;SDS011;33812;46.480;6.834;2022-12-11T17:51:58;27.73;;;2.17;;
48034;SDS011;33812;46.480;6.834;2022-12-11T17:56:00;2.70;;;2.05;;
48034;SDS011;33812;46.480;6.834;2022-12-11T18:00:04;7.05;;;1.80;;
48034;SDS011;33812;46.480;6.834;2022-12-11T18:04:07;8.45;;;1.85;;
48034;SDS011;33812;46.480;6.834;2022-12-11T18:08:10;4.50;;;2.05;;
48034;SDS011;33812;46.480;6.834;2022-12-11T18:12:13;5.50;;;2.10;;
48034;SDS011;33812;46.480;6.834;2022-12-11T18:16:16;8.02;;;2.17;;
48034;SDS011;33812;46.480;6.834;2022-12-11T18:20:19;8.10;;;3.10;;
48034;SDS011;33812;46.480;6.834;2022-12-11T18:24:21;13.25;;;4.43;;
48034;SDS011;33812;46.480;6.834;2022-12-11T18:28:24;26.10;;;6.88;;
48034;SDS011;33812;46.480;6.834;2022-12-11T18:32:28;40.78;;;6.35;;
48034;SDS011;33812;46.480;6.834;2022-12-11T18:36:29;28.95;;;5.32;;
48034;SDS011;33812;46.480;6.834;2022-12-11T18:40:31;23.58;;;5.72;;
48034;SDS011;33812;46.480;6.834;2022-12-11T18:44:33;17.60;;;4.63;;
48034;SDS011;33812;46.480;6.834;2022-12-11T18:48:36;20.55;;;5.60;;
48034;SDS011;33812;46.480;6.834;2022-12-11T19:01:07;15.27;;;3.90;;
48034;SDS011;33812;46.480;6.834;2022-12-11T19:05:10;12.63;;;3.80;;
48034;SDS011;33812;46.480;6.834;2022-12-11T19:09:13;12.35;;;7.22;;
48034;SDS011;33812;46.480;6.834;2022-12-11T19:13:15;10.38;;;6.07;;
48034;SDS011;33812;46.480;6.834;2022-12-11T19:17:17;5.40;;;4.15;;
48034;SDS011;33812;46.480;6.834;2022-12-11T19:21:20;4.60;;;3.42;;
48034;SDS011;33812;46.480;6.834;2022-12-11T19:25:22;6.03;;;2.72;;
48034;SDS011;33812;46.480;6.834;2022-12-11T19:29:24;7.47;;;2.55;;
48034;SDS011;33812;46.480;6.834;2022-12-11T19:33:28;8.07;;;2.58;;
48034;SDS011;33812;46.480;6.834;2022-12-11T19:37:31;4.25;;;2.28;;
48034;SDS011;33812;46.480;6.834;2022-12-11T19:41:33;9.75;;;2.33;;
48034;SDS011;33812;46.480;6.834;2022-12-11T19:45:35;7.13;;;2.78;;
48034;SDS011;33812;46.480;6.834;2022-12-11T19:49:37;12.27;;;3.20;;
48034;SDS011;33812;46.480;6.834;2022-12-11T19:53:43;6.63;;;2.60;;
48034;SDS011;33812;46.480;6.834;2022-12-11T19:57:46;6.13;;;1.90;;
48034;SDS011;33812;46.480;6.834;2022-12-11T20:01:48;7.55;;;2.40;;
48034;SDS011;33812;46.480;6.834;2022-12-11T20:05:50;6.20;;;2.08;;
48034;SDS011;33812;46.480;6.834;2022-12-11T20:09:53;5.70;;;2.30;;
48034;SDS011;33812;46.480;6.834;2022-12-11T20:13:55;6.05;;;2.22;;
48034;SDS011;33812;46.480;6.834;2022-12-11T20:17:59;9.70;;;2.30;;
48034;SDS011;33812;46.480;6.834;2022-12-11T20:22:01;4.85;;;2.20;;
48034;SDS011;33812;46.480;6.834;2022-12-11T20:26:06;9.15;;;2.30;;
48034;SDS011;33812;46.480;6.834;2022-12-11T20:30:11;5.47;;;2.22;;
48034;SDS011;33812;46.480;6.834;2022-12-11T20:34:13;9.13;;;2.85;;
48034;SDS011;33812;46.480;6.834;2022-12-11T20:38:16;7.20;;;2.33;;
48034;SDS011;33812;46.480;6.834;2022-12-11T20:42:19;3.97;;;2.00;;
48034;SDS011;33812;46.480;6.834;2022-12-11T20:46:22;3.50;;;1.92;;
48034;SDS011;33812;46.480;6.834;2022-12-11T20:54:27;6.10;;;2.60;;
48034;SDS011;33812;46.480;6.834;2022-12-11T20:58:31;3.55;;;1.55;;
48034;SDS011;33812;46.480;6.834;2022-12-11T21:02:32;4.22;;;1.75;;
48034;SDS011;33812;46.480;6.834;2022-12-11T21:06:35;4.97;;;2.00;;
48034;SDS011;33812;46.480;6.834;2022-12-11T21:10:39;5.97;;;1.77;;
48034;SDS011;33812;46.480;6.834;2022-12-11T21:14:43;7.97;;;1.90;;
48034;SDS011;33812;46.480;6.834;2022-12-11T21:18:45;2.78;;;1.92;;
48034;SDS011;33812;46.480;6.834;2022-12-11T21:22:47;3.33;;;1.60;;
48034;SDS011;33812;46.480;6.834;2022-12-11T21:26:49;4.53;;;2.03;;
48034;SDS011;33812;46.480;6.834;2022-12-11T21:30:52;6.45;;;1.73;;
48034;SDS011;33812;46.480;6.834;2022-12-11T21:34:54;7.05;;;1.73;;
48034;SDS011;33812;46.480;6.834;2022-12-11T21:38:56;5.70;;;1.88;;
48034;SDS011;33812;46.480;6.834;2022-12-11T21:42:59;5.85;;;1.67;;
48034;SDS011;33812;46.480;6.834;2022-12-11T21:47:02;5.47;;;1.60;;
48034;SDS011;33812;46.480;6.834;2022-12-11T21:51:05;4.03;;;1.52;;
48034;SDS011;33812;46.480;6.834;2022-12-11T21:55:09;2.13;;;1.40;;
48034;SDS011;33812;46.480;6.834;2022-12-11T21:59:11;3.33;;;1.33;;
48034;SDS011;33812;46.480;6.834;2022-12-11T22:03:14;31.58;;;5.93;;
48034;SDS011;33812;46.480;6.834;2022-12-11T22:07:17;3.38;;;1.42;;
48034;SDS011;33812;46.480;6.834;2022-12-11T22:11:21;2.60;;;1.55;;
48034;SDS011;33812;46.480;6.834;2022-12-11T22:15:24;4.10;;;1.80;;
48034;SDS011;33812;46.480;6.834;2022-12-11T22:19:27;3.17;;;1.58;;
48034;SDS011;33812;46.480;6.834;2022-12-11T22:23:29;4.03;;;1.13;;
48034;SDS011;33812;46.480;6.834;2022-12-11T22:27:32;2.30;;;1.63;;
48034;SDS011;33812;46.480;6.834;2022-12-11T22:31:34;1.63;;;1.40;;
48034;SDS011;33812;46.480;6.834;2022-12-11T22:35:37;2.70;;;1.30;;
48034;SDS011;33812;46.480;6.834;2022-12-11T22:39:39;2.72;;;1.92;;
48034;SDS011;33812;46.480;6.834;2022-12-11T22:43:40;1.80;;;1.20;;
48034;SDS011;33812;46.480;6.834;2022-12-11T22:47:42;3.75;;;1.23;;
48034;SDS011;33812;46.480;6.834;2022-12-11T22:51:45;1.42;;;1.20;;
48034;SDS011;33812;46.480;6.834;2022-12-11T22:55:48;1.40;;;1.30;;
48034;SDS011;33812;46.480;6.834;2022-12-11T22:59:49;1.50;;;1.20;;
48034;SDS011;33812;46.480;6.834;2022-12-11T23:03:51;2.30;;;1.40;;
48034;SDS011;33812;46.480;6.834;2022-12-11T23:07:55;1.63;;;0.90;;
48034;SDS011;33812;46.480;6.834;2022-12-11T23:11:57;1.65;;;1.10;;
48034;SDS011;33812;46.480;6.834;2022-12-11T23:15:59;1.27;;;0.90;;
48034;SDS011;33812;46.480;6.834;2022-12-11T23:20:02;2.53;;;1.08;;
48034;SDS011;33812;46.480;6.834;2022-12-11T23:24:06;3.50;;;1.08;;
48034;SDS011;33812;46.480;6.834;2022-12-11T23:28:08;1.40;;;1.30;;
48034;SDS011;33812;46.480;6.834;2022-12-11T23:32:10;1.40;;;1.30;;
48034;SDS011;33812;46.480;6.834;2022-12-11T23:36:12;1.58;;;1.10;;
48034;SDS011;33812;46.480;6.834;2022-12-11T23:40:15;1.52;;;1.20;;
48034;SDS011;33812;46.480;6.834;2022-12-11T23:44:17;1.75;;;1.30;;
48034;SDS011;33812;46.480;6.834;2022-12-11T23:48:19;1.20;;;1.10;;
48034;SDS011;33812;46.480;6.834;2022-12-11T23:52:21;1.05;;;0.93;;
48034;SDS011;33812;46.480;6.834;2022-12-11T23:56:26;1.13;;;1.00;;
